Time;durP1;ratioP1;P1;durP2;ratioP2;P2;SDS_P1;SDS_P2;PMS_P1;PMS_P2;Temp;Humidity;BMP_temperature;BMP_pressure;BME280_temperature;BME280_humidity;BME280_pressure;Samples;Min_cycle;Max_cycle;Signal;HPM_P1;HPM_P2
2021/01/04 00:00:37;;;;;;;60.80;28.67;;;;;;;0.94;87.16;100157.67;120573;1151;104370;-82
2021/01/04 00:03:40;;;;;;;56.23;28.27;;;;;;;0.93;87.29;100158.52;120606;1151;104516;-81
2021/01/04 00:06:16;;;;;;;61.10;29.40;;;;;;;0.94;87.14;100157.67;120746;1149;104411;-82
2021/01/04 00:09:09;;;;;;;57.13;27.98;;;;;;;0.92;87.28;100147.39;120719;1150;104293;-81
2021/01/04 00:11:51;;;;;;;53.97;27.50;;;;;;;0.91;87.29;100145.68;120594;1151;104346;-82
2021/01/04 00:14:31;;;;;;;61.67;29.67;;;;;;;0.91;87.36;100150.81;120579;1151;104859;-81
2021/01/04 00:17:23;;;;;;;57.70;28.47;;;;;;;0.92;87.33;100149.96;120667;1150;104344;-81
2021/01/04 00:20:12;;;;;;;60.27;29.43;;;;;;;0.94;87.22;100147.41;120628;1150;104375;-81
2021/01/04 00:22:49;;;;;;;54.87;27.70;;;;;;;0.96;87.32;100132.86;120552;1151;104271;-81
2021/01/04 00:25:22;;;;;;;60.00;28.60;;;;;;;0.96;87.48;100143.98;120639;1151;104518;-81
2021/01/04 00:28:00;;;;;;;65.27;29.37;;;;;;;0.96;87.49;100146.55;120644;1149;104297;-81
2021/01/04 00:30:30;;;;;;;56.87;28.40;;;;;;;0.97;87.69;100143.13;120699;1151;104181;-81
2021/01/04 00:33:04;;;;;;;58.17;29.03;;;;;;;0.97;87.42;100148.27;120562;1151;104380;-81
2021/01/04 00:35:32;;;;;;;59.53;28.27;;;;;;;0.98;87.32;100152.55;120603;1151;104374;-81
2021/01/04 00:38:11;;;;;;;57.67;27.47;;;;;;;0.99;87.57;100143.14;120700;1150;103105;-81
2021/01/04 00:41:00;;;;;;;57.70;28.27;;;;;;;1.00;87.60;100145.70;120565;1151;104811;-82
2021/01/04 00:43:46;;;;;;;60.40;27.80;;;;;;;1.02;87.47;100141.44;120710;1149;104332;-82
2021/01/04 00:46:18;;;;;;;54.83;26.30;;;;;;;1.05;87.39;100144.02;120582;1151;104323;-82
2021/01/04 00:49:05;;;;;;;55.17;26.07;;;;;;;1.08;87.47;100144.05;120582;1150;104405;-81
2021/01/04 00:51:45;;;;;;;52.62;26.52;;;;;;;1.11;87.50;100132.93;120507;1150;104370;-81
2021/01/04 00:54:27;;;;;;;52.17;26.33;;;;;;;1.12;87.49;100145.78;120617;1151;104429;-81
2021/01/04 00:57:21;;;;;;;55.47;27.30;;;;;;;1.16;87.45;100147.50;120655;1151;104333;-81
2021/01/04 01:00:09;;;;;;;54.67;25.87;;;;;;;1.19;87.34;100156.92;120681;1150;104347;-82
2021/01/04 01:02:51;;;;;;;57.85;26.20;;;;;;;1.20;87.31;100154.36;120524;1151;104319;-81
2021/01/04 01:05:22;;;;;;;47.37;24.50;;;;;;;1.22;87.05;100156.93;120735;1150;104492;-81
2021/01/04 01:08:04;;;;;;;47.07;23.97;;;;;;;1.24;87.12;100151.80;120681;1150;104507;-82
2021/01/04 01:10:43;;;;;;;49.30;23.93;;;;;;;1.25;87.00;100153.52;121252;1150;104213;-82
2021/01/04 01:13:10;;;;;;;52.53;25.20;;;;;;;1.26;87.24;100152.66;121364;1150;104522;-82
2021/01/04 01:15:49;;;;;;;49.20;24.43;;;;;;;1.27;86.88;100149.27;121157;1150;104381;-82
2021/01/04 01:18:30;;;;;;;46.77;24.27;;;;;;;1.27;87.11;100152.70;120530;1151;104340;-82
2021/01/04 01:21:00;;;;;;;48.37;24.30;;;;;;;1.28;87.14;100156.98;120597;1151;104463;-82
2021/01/04 01:23:29;;;;;;;45.67;24.07;;;;;;;1.29;87.09;100152.70;120658;1150;104284;-82
2021/01/04 01:26:08;;;;;;;45.63;24.00;;;;;;;1.29;86.98;100145.84;120592;1151;104538;-82
2021/01/04 01:28:54;;;;;;;48.27;23.87;;;;;;;1.32;87.15;100155.27;120541;1151;104627;-82
2021/01/04 01:31:47;;;;;;;43.67;23.10;;;;;;;1.33;87.03;100146.71;120672;1150;102568;-82
2021/01/04 01:34:15;;;;;;;43.13;22.53;;;;;;;1.33;87.14;100147.56;120671;1151;104291;-81
2021/01/04 01:36:50;;;;;;;46.97;23.63;;;;;;;1.34;87.00;100145.86;120715;1150;104191;-81
2021/01/04 01:39:36;;;;;;;47.60;23.20;;;;;;;1.35;86.95;100151.00;120646;1151;103355;-81
2021/01/04 01:42:06;;;;;;;43.73;22.97;;;;;;;1.35;86.79;100145.86;120754;1150;104352;-81
2021/01/04 01:45:02;;;;;;;43.97;22.87;;;;;;;1.37;87.15;100145.86;120736;1150;104371;-81
2021/01/04 01:47:53;;;;;;;42.53;22.50;;;;;;;1.36;87.07;100145.00;120488;1154;104506;-81
2021/01/04 01:50:44;;;;;;;43.07;22.47;;;;;;;1.36;86.81;100144.15;120552;1153;104426;-81
2021/01/04 01:53:22;;;;;;;42.23;21.83;;;;;;;1.34;86.99;100133.87;120170;1153;104860;-81
2021/01/04 01:56:01;;;;;;;42.30;23.50;;;;;;;1.35;87.11;100142.43;120163;1154;104428;-81
2021/01/04 01:58:56;;;;;;;42.00;22.80;;;;;;;1.34;87.08;100131.30;120570;1153;104617;-81
2021/01/04 02:01:35;;;;;;;43.40;23.85;;;;;;;1.33;86.79;100132.15;120042;1154;104907;-81
2021/01/04 02:04:10;;;;;;;46.87;22.83;;;;;;;1.33;86.88;100137.29;120538;1154;104479;-81
2021/01/04 02:06:52;;;;;;;43.40;23.17;;;;;;;1.35;87.32;100129.59;120217;1154;104388;-81
2021/01/04 02:09:44;;;;;;;43.67;23.50;;;;;;;1.35;87.01;100137.30;120523;1153;104487;-82
2021/01/04 02:12:17;;;;;;;45.13;24.07;;;;;;;1.36;87.06;100133.87;120182;1154;103114;-82
2021/01/04 02:14:52;;;;;;;42.87;22.70;;;;;;;1.38;86.88;100127.88;120611;1153;104864;-81
2021/01/04 02:17:40;;;;;;;46.33;22.70;;;;;;;1.38;86.85;100121.87;120564;1154;104489;-81
2021/01/04 02:20:47;;;;;;;45.37;22.90;;;;;;;1.40;87.31;100125.31;120379;1153;102557;-81
2021/01/04 02:23:26;;;;;;;42.67;21.77;;;;;;;1.41;86.78;100129.59;120073;1154;103043;-82
2021/01/04 02:25:58;;;;;;;46.03;23.43;;;;;;;1.41;87.31;100122.73;120716;1149;102838;-81
2021/01/04 02:28:30;;;;;;;46.23;25.80;;;;;;;1.42;87.04;100134.73;120666;1151;104359;-81
2021/01/04 02:30:57;;;;;;;45.07;23.67;;;;;;;1.43;86.86;100125.31;120675;1151;104410;-81
2021/01/04 02:33:25;;;;;;;48.40;23.10;;;;;;;1.44;87.12;100121.92;120703;1151;103150;-82
2021/01/04 02:35:52;;;;;;;46.48;23.62;;;;;;;1.45;86.98;100110.78;120672;1150;104381;-81
2021/01/04 02:38:25;;;;;;;40.57;22.10;;;;;;;1.46;87.30;100117.64;120798;1151;104435;-81
2021/01/04 02:40:52;;;;;;;46.40;23.87;;;;;;;1.49;87.00;100117.64;120652;1151;104392;-81
2021/01/04 02:43:21;;;;;;;44.70;24.37;;;;;;;1.49;87.03;100109.93;120668;1151;103294;-81
2021/01/04 02:45:48;;;;;;;44.20;23.03;;;;;;;1.51;86.78;100115.92;120648;1150;104308;-81
2021/01/04 02:48:30;;;;;;;39.40;22.00;;;;;;;1.54;87.29;100115.93;120682;1150;104352;-81
2021/01/04 02:51:06;;;;;;;42.53;22.40;;;;;;;1.57;87.05;100122.78;120682;1151;104323;-82
2021/01/04 02:53:36;;;;;;;42.45;23.12;;;;;;;1.56;86.74;100121.92;120654;1151;104326;-82
2021/01/04 02:56:43;;;;;;;43.90;23.07;;;;;;;1.57;86.71;100117.64;120719;1149;104410;-81
2021/01/04 02:59:22;;;;;;;44.00;22.75;;;;;;;1.57;86.77;100123.64;120369;1154;104364;-82
2021/01/04 03:02:17;;;;;;;42.63;22.47;;;;;;;1.58;87.05;100119.36;119996;1153;104394;-82
2021/01/04 03:04:46;;;;;;;43.77;22.93;;;;;;;1.59;86.71;100129.64;119926;1154;105257;-82
2021/01/04 03:07:21;;;;;;;48.17;23.40;;;;;;;1.60;86.97;100115.93;120004;1153;104298;-81
2021/01/04 03:09:51;;;;;;;45.90;22.97;;;;;;;1.61;86.54;100120.22;121127;1154;104394;-81
2021/01/04 03:12:23;;;;;;;44.27;22.60;;;;;;;1.63;86.89;100120.25;120794;1153;104337;-81
2021/01/04 03:15:23;;;;;;;45.23;23.23;;;;;;;1.63;86.75;100118.53;120523;1154;104466;-81
2021/01/04 03:18:09;;;;;;;42.47;22.97;;;;;;;1.65;86.99;100110.83;119916;1154;102547;-81
2021/01/04 03:20:36;;;;;;;45.90;23.35;;;;;;;1.65;86.51;100116.82;120439;1154;103020;-81
2021/01/04 03:23:04;;;;;;;46.77;23.87;;;;;;;1.66;86.88;100112.53;119890;1154;104489;-81
2021/01/04 03:25:37;;;;;;;47.27;23.10;;;;;;;1.66;86.42;100112.53;120531;1153;104330;-81
2021/01/04 03:28:13;;;;;;;40.80;22.30;;;;;;;1.65;86.72;100114.25;120042;1153;104369;-81
2021/01/04 03:30:39;;;;;;;46.47;22.97;;;;;;;1.66;86.69;100118.53;119914;1154;104913;-81
2021/01/04 03:33:07;;;;;;;43.85;22.58;;;;;;;1.67;86.59;100121.96;120075;1154;104485;-82
2021/01/04 03:35:34;;;;;;;46.73;23.97;;;;;;;1.69;86.47;100120.25;119992;1154;104416;-82
2021/01/04 03:38:01;;;;;;;44.58;22.35;;;;;;;1.68;86.34;100124.53;120626;1150;104321;-82
2021/01/04 03:40:28;;;;;;;45.63;22.67;;;;;;;1.67;86.51;100120.25;120709;1150;104367;-80
2021/01/04 03:42:56;;;;;;;44.80;22.77;;;;;;;1.68;86.61;100116.82;120668;1151;104479;-80
2021/01/04 03:45:23;;;;;;;46.93;23.70;;;;;;;1.68;86.40;100116.82;120736;1149;103394;-81
2021/01/04 03:47:50;;;;;;;44.35;22.85;;;;;;;1.69;86.33;100110.83;120718;1151;104457;-81
2021/01/04 03:50:17;;;;;;;46.30;23.10;;;;;;;1.69;86.53;100112.53;120650;1150;104452;-81
2021/01/04 03:52:44;;;;;;;46.87;23.53;;;;;;;1.69;86.69;100108.25;120737;1150;104477;-81
2021/01/04 03:55:14;;;;;;;46.18;23.42;;;;;;;1.68;86.43;100114.25;120619;1151;104449;-81
2021/01/04 03:57:42;;;;;;;45.90;23.77;;;;;;;1.69;86.63;100115.11;120627;1150;104493;-81
2021/01/04 04:00:13;;;;;;;47.00;24.33;;;;;;;1.67;86.72;100115.11;120575;1151;104428;-81
2021/01/04 04:02:41;;;;;;;50.70;24.73;;;;;;;1.66;86.58;100118.53;120716;1150;104511;-81
2021/01/04 04:05:11;;;;;;;51.80;25.30;;;;;;;1.64;86.58;100116.82;120703;1150;104452;-81
2021/01/04 04:07:39;;;;;;;49.00;24.67;;;;;;;1.62;86.42;100127.10;120583;1151;105570;-81
2021/01/04 04:10:07;;;;;;;49.37;23.90;;;;;;;1.61;86.54;100129.64;120599;1151;104356;-81
2021/01/04 04:12:36;;;;;;;54.13;25.00;;;;;;;1.59;86.72;100131.36;120563;1150;104342;-81
2021/01/04 04:15:09;;;;;;;48.20;25.30;;;;;;;1.56;86.82;100127.07;120659;1151;104381;-81
2021/01/04 04:17:36;;;;;;;51.27;25.50;;;;;;;1.56;86.71;100129.64;120633;1151;104509;-81
2021/01/04 04:20:09;;;;;;;55.25;25.35;;;;;;;1.55;86.84;100132.20;120578;1151;104414;-81
2021/01/04 04:22:36;;;;;;;49.90;24.17;;;;;;;1.56;86.91;100132.21;120613;1151;103180;-82
2021/01/04 04:25:06;;;;;;;48.53;24.50;;;;;;;1.56;86.93;100139.92;120672;1150;104449;-82
2021/01/04 04:27:34;;;;;;;53.77;25.17;;;;;;;1.57;86.91;100133.06;120645;1151;102461;-81
2021/01/04 04:30:03;;;;;;;47.80;23.80;;;;;;;1.58;86.78;100132.21;120612;1151;103841;-81
2021/01/04 04:32:30;;;;;;;45.80;24.30;;;;;;;1.58;86.94;100134.78;120641;1151;104316;-81
2021/01/04 04:34:57;;;;;;;52.13;24.40;;;;;;;1.60;86.95;100138.20;120678;1151;104478;-81
2021/01/04 04:37:24;;;;;;;49.53;24.57;;;;;;;1.61;86.96;100139.92;120642;1151;104556;-81
2021/01/04 04:39:51;;;;;;;48.63;24.12;;;;;;;1.60;86.82;100143.34;120745;1151;103005;-82
2021/01/04 04:42:19;;;;;;;47.03;24.27;;;;;;;1.59;86.91;100151.92;120690;1150;104319;-81
2021/01/04 04:45:05;;;;;;;47.03;22.47;;;;;;;1.60;86.99;100153.63;120660;1150;104479;-81
2021/01/04 04:48:00;;;;;;;46.33;23.03;;;;;;;1.61;86.81;100143.35;120630;1148;104335;-81
2021/01/04 04:51:00;;;;;;;42.40;22.50;;;;;;;1.62;87.10;100142.53;120724;1151;102630;-81
2021/01/04 04:54:00;;;;;;;43.78;23.10;;;;;;;1.62;87.25;100139.95;120729;1151;102476;-81
2021/01/04 04:56:58;;;;;;;47.67;24.17;;;;;;;1.64;86.95;100140.81;120650;1150;104554;-81
2021/01/04 04:59:49;;;;;;;42.27;22.77;;;;;;;1.64;86.83;100145.09;120693;1150;104338;-81
2021/01/04 05:02:38;;;;;;;44.43;22.17;;;;;;;1.65;86.95;100146.81;120744;1150;104320;-81
2021/01/04 05:05:29;;;;;;;40.13;20.60;;;;;;;1.66;87.18;100144.24;120798;1150;104399;-81
2021/01/04 05:08:30;;;;;;;40.90;21.23;;;;;;;1.67;86.91;100145.95;121088;1151;103675;-81
2021/01/04 05:10:59;;;;;;;42.10;21.73;;;;;;;1.69;86.65;100149.39;121355;1150;104304;-81
2021/01/04 05:13:38;;;;;;;37.07;19.77;;;;;;;1.71;87.10;100147.67;121116;1151;104505;-81
2021/01/04 05:16:10;;;;;;;37.25;20.50;;;;;;;1.73;87.00;100151.10;120668;1150;104332;-80
2021/01/04 05:19:06;;;;;;;35.23;19.00;;;;;;;1.75;86.94;100151.96;120695;1151;104437;-81
2021/01/04 05:22:04;;;;;;;36.30;19.80;;;;;;;1.77;87.09;100151.96;120749;1151;104473;-81
2021/01/04 05:24:40;;;;;;;36.70;19.27;;;;;;;1.79;86.59;100155.39;120716;1150;104406;-81
2021/01/04 05:27:32;;;;;;;35.33;18.77;;;;;;;1.80;86.73;100167.42;120746;1149;104414;-81
2021/01/04 05:30:21;;;;;;;33.47;18.60;;;;;;;1.80;86.87;100163.14;120703;1150;104208;-81
2021/01/04 05:32:51;;;;;;;36.60;19.00;;;;;;;1.81;86.86;100167.42;120750;1150;104285;-81
2021/01/04 05:35:18;;;;;;;37.90;20.20;;;;;;;1.83;86.80;100169.14;120810;1150;104583;-81
2021/01/04 05:38:23;;;;;;;35.87;18.70;;;;;;;1.84;86.90;100168.28;120604;1151;105050;-81
2021/01/04 05:41:09;;;;;;;35.40;20.00;;;;;;;1.84;86.91;100169.14;120621;1149;102509;-81
2021/01/04 05:43:55;;;;;;;34.73;20.17;;;;;;;1.83;86.87;100163.99;120717;1151;104471;-80
2021/01/04 05:46:46;;;;;;;36.60;19.80;;;;;;;1.84;86.64;100165.70;120665;1151;104278;-81
2021/01/04 05:49:42;;;;;;;35.17;19.77;;;;;;;1.84;86.93;100168.28;120681;1150;104522;-81
2021/01/04 05:52:09;;;;;;;36.63;20.53;;;;;;;1.83;86.72;100166.56;120687;1150;104430;-81
2021/01/04 05:54:37;;;;;;;34.77;20.40;;;;;;;1.85;86.52;100165.70;120590;1151;104322;-80
2021/01/04 05:57:15;;;;;;;37.63;20.37;;;;;;;1.87;86.83;100163.14;120652;1150;104318;-82
2021/01/04 05:59:57;;;;;;;33.30;19.77;;;;;;;1.87;86.71;100166.56;120653;1151;104409;-81
2021/01/04 06:02:35;;;;;;;37.50;21.00;;;;;;;1.86;86.78;100174.28;120720;1150;102646;-81
2021/01/04 06:05:20;;;;;;;38.00;21.45;;;;;;;1.84;86.76;100173.42;120600;1150;104418;-81
2021/01/04 06:07:48;;;;;;;39.70;22.30;;;;;;;1.85;86.89;100180.28;120554;1151;104524;-81
2021/01/04 06:10:35;;;;;;;36.87;20.57;;;;;;;1.81;86.87;100180.28;120763;1150;104355;-81
2021/01/04 06:13:19;;;;;;;39.33;20.87;;;;;;;1.80;86.90;100183.70;120694;1151;104342;-81
2021/01/04 06:15:47;;;;;;;35.87;20.07;;;;;;;1.82;86.89;100193.99;120761;1150;104346;-81
2021/01/04 06:18:27;;;;;;;35.70;20.33;;;;;;;1.83;86.84;100192.28;120787;1150;104554;-81
2021/01/04 06:21:09;;;;;;;37.63;21.40;;;;;;;1.85;86.86;100190.56;120694;1151;102356;-81
2021/01/04 06:23:36;;;;;;;37.47;21.53;;;;;;;1.85;86.90;100190.56;120647;1150;104851;-81
2021/01/04 06:26:12;;;;;;;34.03;20.70;;;;;;;1.87;86.98;100192.28;120635;1151;104343;-81
2021/01/04 06:28:51;;;;;;;34.77;20.00;;;;;;;1.90;87.12;100191.42;120645;1151;104397;-80
2021/01/04 06:31:32;;;;;;;36.43;20.77;;;;;;;1.91;86.91;100190.56;120607;1151;103344;-81
2021/01/04 06:34:21;;;;;;;38.77;20.93;;;;;;;1.92;86.70;100188.00;120580;1151;104428;-81
2021/01/04 06:36:55;;;;;;;39.33;20.70;;;;;;;1.96;86.73;100186.28;120692;1151;104435;-81
2021/01/04 06:39:32;;;;;;;37.40;20.90;;;;;;;1.97;86.83;100190.56;120743;1150;104324;-82
2021/01/04 06:42:23;;;;;;;38.30;22.37;;;;;;;1.99;86.63;100194.03;120648;1150;104381;-82
2021/01/04 06:45:39;;;;;;;37.93;21.87;;;;;;;2.01;86.90;100198.32;120748;1149;103161;-82
2021/01/04 06:48:15;;;;;;;38.23;21.90;;;;;;;2.01;86.24;100197.46;120525;1153;104591;-82
2021/01/04 06:50:45;;;;;;;39.35;21.42;;;;;;;2.02;86.18;100199.17;120585;1152;104595;-81
2021/01/04 06:53:38;;;;;;;39.20;22.03;;;;;;;2.03;86.38;100195.75;120592;1153;104498;-81
2021/01/04 06:56:39;;;;;;;36.83;22.20;;;;;;;2.04;86.48;100193.17;120529;1153;102691;-81
2021/01/04 06:59:25;;;;;;;41.30;23.60;;;;;;;2.04;86.52;100187.17;120519;1153;105882;-81
2021/01/04 07:02:23;;;;;;;38.80;22.20;;;;;;;2.03;86.18;100181.17;120432;1153;104229;-82
2021/01/04 07:04:52;;;;;;;;;;;;;;;2.00;86.45;100181.17;120289;1153;104706;-82
2021/01/04 07:08:03;;;;;;;34.60;20.47;;;;;;;2.00;86.27;100190.60;120984;1153;103234;-81
2021/01/04 07:10:39;;;;;;;38.17;22.43;;;;;;;2.01;86.22;100187.17;121460;1153;104519;-81
2021/01/04 07:13:25;;;;;;;40.88;20.90;;;;;;;2.04;86.74;100182.02;120999;1153;104519;-81
2021/01/04 07:16:17;;;;;;;38.17;21.40;;;;;;;2.07;86.28;100179.45;120581;1153;104204;-81
2021/01/04 07:19:17;;;;;;;36.87;22.43;;;;;;;2.10;86.10;100171.73;120572;1150;104454;-81
2021/01/04 07:21:55;;;;;;;37.90;21.13;;;;;;;2.12;86.53;100175.16;120563;1152;104332;-82
2021/01/04 07:25:16;;;;;;;39.40;21.80;;;;;;;2.15;86.15;100171.73;120594;1153;104361;-81
2021/01/04 07:28:22;;;;;;;34.63;20.87;;;;;;;2.16;86.22;100170.91;119834;1156;104488;-82
2021/01/04 07:30:56;;;;;;;40.30;23.03;;;;;;;2.16;85.94;100179.48;119856;1157;104480;-81
2021/01/04 07:33:39;;;;;;;39.77;23.17;;;;;;;2.15;85.95;100180.30;119892;1157;103177;-82
2021/01/04 07:36:27;;;;;;;37.40;21.20;;;;;;;2.15;86.36;100182.02;119826;1157;104378;-81
2021/01/04 07:39:36;;;;;;;38.07;21.83;;;;;;;2.15;86.36;100176.88;119862;1156;104439;-82
2021/01/04 07:42:18;;;;;;;39.10;22.97;;;;;;;2.15;86.24;100184.59;119882;1157;105565;-82
2021/01/04 07:45:09;;;;;;;38.03;22.17;;;;;;;2.15;85.97;100170.01;119869;1156;104387;-82
2021/01/04 07:48:13;;;;;;;42.47;23.13;;;;;;;2.15;85.88;100175.16;119832;1157;104410;-81
2021/01/04 07:50:52;;;;;;;41.27;23.27;;;;;;;2.16;86.30;100188.91;119899;1156;104535;-81
2021/01/04 07:53:49;;;;;;;42.50;24.17;;;;;;;2.18;86.22;100184.62;119862;1156;104477;-81
2021/01/04 07:56:51;;;;;;;44.05;24.43;;;;;;;2.19;86.07;100192.34;119235;1157;104489;-81
2021/01/04 07:59:40;;;;;;;39.43;23.60;;;;;;;2.21;86.25;100190.63;120360;1153;104443;-80
2021/01/04 08:02:39;;;;;;;43.07;23.50;;;;;;;2.23;86.16;100190.62;120597;1153;104287;-81
2021/01/04 08:05:39;;;;;;;38.67;22.63;;;;;;;2.25;85.88;100188.91;120488;1154;104473;-81
2021/01/04 08:08:28;;;;;;;43.83;25.97;;;;;;;2.26;85.78;100195.77;120563;1153;104532;-81
2021/01/04 08:11:25;;;;;;;43.97;25.03;;;;;;;2.26;85.84;100194.05;120592;1153;104479;-81
2021/01/04 08:14:19;;;;;;;41.17;23.77;;;;;;;2.28;85.92;100202.63;120546;1153;104563;-81
2021/01/04 08:16:51;;;;;;;40.50;22.95;;;;;;;2.30;85.72;100207.77;120584;1154;104773;-81
2021/01/04 08:19:18;;;;;;;42.50;24.00;;;;;;;2.32;85.97;100208.62;120091;1154;103168;-81
2021/01/04 08:22:18;;;;;;;41.20;24.10;;;;;;;2.31;86.07;100207.77;119946;1154;104549;-81
2021/01/04 08:24:50;;;;;;;43.23;24.87;;;;;;;2.31;85.56;100207.77;120548;1153;104568;-81
2021/01/04 08:27:46;;;;;;;45.53;25.07;;;;;;;2.30;85.96;100206.05;120091;1154;104343;-81
2021/01/04 08:30:20;;;;;;;39.35;22.80;;;;;;;2.30;85.96;100215.48;120542;1153;103047;-81
2021/01/04 08:33:10;;;;;;;44.80;25.40;;;;;;;2.31;85.90;100222.35;120508;1151;104468;-81
2021/01/04 08:35:43;;;;;;;39.50;23.53;;;;;;;2.29;85.42;100224.92;120675;1149;104357;-81
2021/01/04 08:38:26;;;;;;;43.10;24.43;;;;;;;2.29;85.92;100221.49;120641;1151;104327;-81
2021/01/04 08:41:14;;;;;;;41.90;24.60;;;;;;;2.30;85.77;100215.48;120680;1150;104415;-80
2021/01/04 08:43:44;;;;;;;41.03;24.83;;;;;;;2.33;86.04;100229.20;120717;1150;104348;-81
2021/01/04 08:46:22;;;;;;;42.37;23.97;;;;;;;2.36;85.79;100229.24;120631;1150;103807;-80
2021/01/04 08:49:14;;;;;;;39.53;23.53;;;;;;;2.35;85.57;100232.67;120599;1150;102576;-81
2021/01/04 08:51:42;;;;;;;42.80;24.50;;;;;;;2.35;85.75;100247.26;120561;1149;102885;-80
2021/01/04 08:54:09;;;;;;;42.70;25.10;;;;;;;2.33;85.58;100244.66;120629;1149;104252;-81
2021/01/04 08:56:40;;;;;;;43.05;24.57;;;;;;;2.34;85.80;100253.27;120713;1150;104459;-81
2021/01/04 08:59:14;;;;;;;40.60;24.00;;;;;;;2.34;86.10;100248.98;120622;1151;103236;-81
2021/01/04 09:01:53;;;;;;;40.83;25.10;;;;;;;2.36;85.66;100246.40;120705;1151;104475;-81
2021/01/04 09:04:44;;;;;;;50.20;25.30;;;;;;;2.38;85.86;100245.54;120912;1151;102493;-81
2021/01/04 09:07:17;;;;;;;42.70;24.70;;;;;;;2.39;85.49;100252.41;121452;1153;104340;-81
2021/01/04 09:09:51;;;;;;;48.97;28.17;;;;;;;2.40;85.74;100251.55;121676;1151;103118;-81
2021/01/04 09:12:51;;;;;;;49.40;27.33;;;;;;;2.41;85.50;100250.69;120867;1150;104410;-81
2021/01/04 09:15:22;;;;;;;45.10;25.70;;;;;;;2.43;85.52;100238.67;120773;1150;104362;-81
2021/01/04 09:18:01;;;;;;;45.03;26.33;;;;;;;2.47;85.41;100234.38;120730;1150;103269;-81
2021/01/04 09:20:38;;;;;;;46.87;26.70;;;;;;;2.51;85.47;100240.37;120708;1151;104450;-82
2021/01/04 09:23:40;;;;;;;49.08;26.90;;;;;;;2.54;86.00;100241.27;120794;1151;104312;-81
2021/01/04 09:26:16;;;;;;;49.20;27.27;;;;;;;2.55;85.14;100239.55;120610;1151;104471;-82
2021/01/04 09:28:48;;;;;;;50.23;29.50;;;;;;;2.54;85.19;100248.13;120661;1151;104371;-82
2021/01/04 09:31:18;;;;;;;50.03;27.73;;;;;;;2.52;85.41;100242.12;120585;1151;104444;-82
2021/01/04 09:33:51;;;;;;;49.60;27.60;;;;;;;2.54;85.52;100248.13;120560;1150;104253;-82
2021/01/04 09:36:22;;;;;;;48.97;28.20;;;;;;;2.55;85.44;100248.13;120603;1150;104335;-82
2021/01/04 09:39:03;;;;;;;51.27;28.43;;;;;;;2.56;85.33;100246.41;120644;1150;104419;-81
2021/01/04 09:41:31;;;;;;;51.63;29.63;;;;;;;2.57;85.21;100242.98;120668;1150;103293;-80
2021/01/04 09:44:07;;;;;;;52.67;29.83;;;;;;;2.56;85.34;100242.12;120636;1149;104426;-81
2021/01/04 09:46:43;;;;;;;51.43;28.63;;;;;;;2.57;85.01;100238.69;120592;1150;104366;-82
2021/01/04 09:49:22;;;;;;;52.43;30.72;;;;;;;2.58;85.62;100242.97;120682;1151;104535;-81
2021/01/04 09:52:01;;;;;;;50.17;29.43;;;;;;;2.59;85.07;100243.83;120754;1150;104355;-81
2021/01/04 09:54:38;;;;;;;51.17;29.77;;;;;;;2.60;85.80;100237.82;120585;1151;103095;-81
2021/01/04 09:57:07;;;;;;;56.33;31.00;;;;;;;2.63;85.37;100245.54;120647;1151;104431;-81
2021/01/04 09:59:43;;;;;;;58.40;31.87;;;;;;;2.64;85.50;100252.41;120575;1151;102948;-80
2021/01/04 10:02:20;;;;;;;58.70;30.80;;;;;;;2.61;84.87;100247.27;120531;1151;104420;-81
2021/01/04 10:04:48;;;;;;;54.83;30.43;;;;;;;2.63;85.20;100250.69;120647;1151;103288;-81
2021/01/04 10:07:34;;;;;;;54.00;30.40;;;;;;;2.63;84.93;100255.84;120630;1150;104482;-81
2021/01/04 10:10:13;;;;;;;56.57;32.87;;;;;;;2.64;85.62;100254.98;120627;1151;104444;-81
2021/01/04 10:12:40;;;;;;;56.67;31.70;;;;;;;2.64;85.45;100248.11;120602;1151;104351;-82
2021/01/04 10:15:32;;;;;;;54.37;30.80;;;;;;;2.67;85.52;100252.40;120775;1150;104305;-82
2021/01/04 10:18:23;;;;;;;57.30;31.47;;;;;;;2.69;85.42;100248.11;120678;1151;104436;-82
2021/01/04 10:20:53;;;;;;;56.30;31.10;;;;;;;2.71;85.29;100238.69;120603;1150;104401;-82
2021/01/04 10:23:33;;;;;;;59.67;34.37;;;;;;;2.75;85.21;100240.39;120683;1151;104392;-82
2021/01/04 10:26:21;;;;;;;60.30;31.73;;;;;;;2.78;85.26;100244.69;120577;1150;104444;-81
2021/01/04 10:28:50;;;;;;;55.53;30.97;;;;;;;2.78;84.74;100242.97;120648;1151;104285;-81
2021/01/04 10:31:23;;;;;;;56.83;30.90;;;;;;;2.78;85.26;100232.66;120623;1151;104251;-82
2021/01/04 10:34:03;;;;;;;53.70;31.35;;;;;;;2.81;84.77;100239.53;120658;1151;103017;-82
2021/01/04 10:36:30;;;;;;;55.70;31.73;;;;;;;2.81;85.29;100229.22;120608;1151;103021;-81
2021/01/04 10:39:20;;;;;;;53.57;29.57;;;;;;;2.84;85.15;100224.06;120563;1151;104326;-82
2021/01/04 10:41:48;;;;;;;55.13;30.27;;;;;;;2.91;84.98;100226.65;120720;1150;104319;-83
2021/01/04 10:44:26;;;;;;;52.57;30.30;;;;;;;2.93;85.34;100224.92;120575;1151;104487;-82
2021/01/04 10:47:02;;;;;;;56.63;32.40;;;;;;;2.98;84.71;100225.77;120642;1151;104323;-83
2021/01/04 10:49:33;;;;;;;58.73;31.75;;;;;;;3.01;85.19;100218.02;120589;1151;104390;-83
2021/01/04 10:52:01;;;;;;;53.87;30.07;;;;;;;3.04;85.25;100219.73;120735;1150;104324;-83
2021/01/04 10:54:39;;;;;;;54.87;31.73;;;;;;;3.08;84.70;100215.45;120612;1151;104503;-83
2021/01/04 10:57:19;;;;;;;58.23;32.13;;;;;;;3.09;84.54;100215.45;120669;1151;104433;-83
2021/01/04 10:59:56;;;;;;;57.07;31.90;;;;;;;3.12;84.62;100220.59;120724;1150;104342;-83
2021/01/04 11:02:23;;;;;;;54.38;31.15;;;;;;;3.14;85.21;100218.01;120762;1150;104381;-83
2021/01/04 11:04:54;;;;;;;55.20;31.27;;;;;;;3.17;84.52;100217.99;121181;1150;103260;-83
2021/01/04 11:07:29;;;;;;;55.37;31.20;;;;;;;3.17;84.79;100212.84;121172;1151;104316;-83
2021/01/04 11:09:56;;;;;;;51.67;30.53;;;;;;;3.19;84.78;100216.27;120664;1151;102605;-83
2021/01/04 11:12:27;;;;;;;55.93;32.70;;;;;;;3.18;84.55;100212.83;120696;1151;104436;-83
2021/01/04 11:15:02;;;;;;;57.33;31.97;;;;;;;3.19;84.78;100217.13;120663;1150;104384;-83
2021/01/04 11:17:35;;;;;;;57.23;31.27;;;;;;;3.21;84.92;100204.23;120554;1151;104587;-83
2021/01/04 11:20:15;;;;;;;56.20;31.40;;;;;;;3.22;84.89;100201.64;120718;1149;104394;-83
2021/01/04 11:22:43;;;;;;;65.50;35.53;;;;;;;3.23;84.62;100208.55;120631;1150;104373;-83
2021/01/04 11:25:12;;;;;;;59.83;33.27;;;;;;;3.22;84.67;100200.79;120652;1151;104527;-83
2021/01/04 11:27:39;;;;;;;58.80;33.20;;;;;;;3.21;84.69;100199.94;120594;1151;104342;-83
2021/01/04 11:30:08;;;;;;;58.53;32.97;;;;;;;3.23;84.62;100205.97;120671;1151;104419;-82
2021/01/04 11:32:35;;;;;;;62.50;34.57;;;;;;;3.23;84.45;100199.92;120613;1150;104320;-82
2021/01/04 11:35:03;;;;;;;65.63;36.30;;;;;;;3.24;84.26;100193.94;120527;1151;104308;-82
2021/01/04 11:37:30;;;;;;;57.60;32.97;;;;;;;3.26;84.28;100194.79;120561;1151;104391;-82
2021/01/04 11:39:57;;;;;;;60.50;35.05;;;;;;;3.27;84.25;100186.19;120757;1150;104468;-82
2021/01/04 11:42:25;;;;;;;62.00;34.13;;;;;;;3.33;84.59;100181.00;120657;1148;104603;-81
2021/01/04 11:44:52;;;;;;;60.90;34.07;;;;;;;3.41;84.08;100181.84;120629;1150;104377;-81
2021/01/04 11:47:19;;;;;;;63.20;36.13;;;;;;;3.50;84.64;100181.79;120620;1150;104447;-81
2021/01/04 11:49:47;;;;;;;62.63;35.57;;;;;;;3.60;84.36;100178.32;120695;1150;104506;-81
2021/01/04 11:52:14;;;;;;;67.70;36.73;;;;;;;3.69;83.76;100172.23;120667;1151;102071;-82
2021/01/04 11:54:43;;;;;;;65.73;35.97;;;;;;;3.76;84.37;100168.75;120570;1151;104369;-82